Time;durP1;ratioP1;P1;durP2;ratioP2;P2;SDS_P1;SDS_P2;PMS_P1;PMS_P2;Temp;Humidity;BMP_temperature;BMP_pressure;BME280_temperature;BME280_humidity;BME280_pressure;Samples;Min_cycle;Max_cycle;Signal;HPM_P1;HPM_P2
2022/10/31 00:01:37;;;;;;;1.23;1.23;;;16.00;66.00;;;;;;5009333;28;20185;-69
2022/10/31 00:04:04;;;;;;;2.15;1.35;;;15.90;67.30;;;;;;5015366;28;20203;-70
2022/10/31 00:06:30;;;;;;;1.80;1.70;;;15.90;66.30;;;;;;5011533;28;20181;-70
2022/10/31 00:08:58;;;;;;;1.80;1.63;;;15.90;66.80;;;;;;5014856;28;20250;-70
2022/10/31 00:11:24;;;;;;;1.50;1.40;;;15.90;66.70;;;;;;5008780;28;20655;-69
2022/10/31 00:13:50;;;;;;;1.15;1.15;;;15.90;66.50;;;;;;5014921;28;20209;-69
2022/10/31 00:16:17;;;;;;;3.10;1.23;;;15.90;66.60;;;;;;5012941;28;20777;-69
2022/10/31 00:18:43;;;;;;;2.00;1.38;;;15.90;66.50;;;;;;5009650;28;20188;-69
2022/10/31 00:21:09;;;;;;;1.17;1.17;;;15.90;66.70;;;;;;5016922;28;20180;-69
2022/10/31 00:23:35;;;;;;;1.70;1.60;;;15.70;68.00;;;;;;5007919;28;20243;-68
2022/10/31 00:26:03;;;;;;;1.55;1.35;;;15.60;68.10;;;;;;5015477;28;20254;-70
2022/10/31 00:28:30;;;;;;;3.85;1.70;;;15.60;67.70;;;;;;5014487;28;20181;-68
2022/10/31 00:31:01;;;;;;;1.70;1.60;;;15.70;67.40;;;;;;5011646;28;20275;-69
2022/10/31 00:33:27;;;;;;;1.70;1.60;;;15.70;67.10;;;;;;5010218;28;20181;-69
2022/10/31 00:35:52;;;;;;;1.55;1.52;;;15.70;67.60;;;;;;5017653;28;20732;-69
2022/10/31 00:38:18;;;;;;;1.98;1.15;;;15.70;67.30;;;;;;5006798;28;20268;-69
2022/10/31 00:40:44;;;;;;;1.60;1.50;;;15.70;67.50;;;;;;5009205;28;20189;-69
2022/10/31 00:43:09;;;;;;;2.20;1.20;;;15.70;67.60;;;;;;5010571;28;20862;-69
2022/10/31 00:45:35;;;;;;;1.83;1.50;;;15.60;67.70;;;;;;5013707;28;20258;-69
2022/10/31 00:48:01;;;;;;;2.03;1.67;;;15.70;67.60;;;;;;5009067;28;20707;-69
2022/10/31 00:50:26;;;;;;;2.15;1.23;;;15.70;67.70;;;;;;5011190;28;20208;-69
2022/10/31 00:52:52;;;;;;;3.35;1.67;;;15.70;67.60;;;;;;5011133;28;20204;-69
2022/10/31 00:55:17;;;;;;;2.10;1.10;;;15.70;67.60;;;;;;5009801;28;20220;-69
2022/10/31 00:57:46;;;;;;;1.60;1.58;;;15.60;68.10;;;;;;5010635;28;20193;-69
2022/10/31 01:00:12;;;;;;;1.40;1.30;;;15.60;67.60;;;;;;5009908;28;20220;-69
2022/10/31 01:02:38;;;;;;;1.95;1.25;;;15.60;67.50;;;;;;5006430;28;20231;-69
2022/10/31 01:05:04;;;;;;;1.58;1.48;;;15.70;67.60;;;;;;5017072;28;20184;-69
2022/10/31 01:07:29;;;;;;;1.65;1.55;;;15.70;67.20;;;;;;5013012;28;20626;-69
2022/10/31 01:09:55;;;;;;;1.50;1.33;;;15.70;67.20;;;;;;5007539;28;20208;-69
2022/10/31 01:12:21;;;;;;;4.53;1.45;;;15.70;67.30;;;;;;5012688;28;20184;-69
2022/10/31 01:14:47;;;;;;;3.50;1.48;;;15.70;67.50;;;;;;5013813;28;20387;-69
2022/10/31 01:17:13;;;;;;;1.75;1.48;;;15.60;67.40;;;;;;5011941;28;20288;-69
2022/10/31 01:19:39;;;;;;;1.02;1.02;;;15.60;67.50;;;;;;5011255;28;20274;-69
2022/10/31 01:22:05;;;;;;;1.13;1.08;;;15.60;67.60;;;;;;5007156;28;20215;-69
2022/10/31 01:24:30;;;;;;;1.98;1.35;;;15.60;67.60;;;;;;5012748;28;20245;-69
2022/10/31 01:26:56;;;;;;;1.27;1.27;;;15.60;67.60;;;;;;5012653;28;20192;-69
2022/10/31 01:29:22;;;;;;;2.40;1.30;;;15.60;67.50;;;;;;5009661;28;20271;-69
2022/10/31 01:31:47;;;;;;;2.67;1.10;;;15.60;67.90;;;;;;5007580;28;20235;-69
2022/10/31 01:34:15;;;;;;;1.23;1.23;;;15.60;68.00;;;;;;5014486;28;20281;-69
2022/10/31 01:36:42;;;;;;;1.77;1.67;;;15.60;67.90;;;;;;5010069;28;20224;-71
2022/10/31 01:39:13;;;;;;;2.35;1.67;;;15.50;68.30;;;;;;5009077;28;20560;-69
2022/10/31 01:41:45;;;;;;;1.50;1.50;;;15.60;68.40;;;;;;5008361;28;20797;-69
2022/10/31 01:44:14;;;;;;;1.42;1.33;;;15.60;68.30;;;;;;5007903;28;20184;-69
2022/10/31 01:46:46;;;;;;;1.73;1.63;;;15.60;68.30;;;;;;5009481;28;20212;-69
2022/10/31 01:49:17;;;;;;;2.38;2.28;;;15.60;68.50;;;;;;5010771;28;20193;-69
2022/10/31 01:51:58;;;;;;;1.92;1.83;;;15.60;68.50;;;;;;5010652;28;20894;-69
2022/10/31 01:54:29;;;;;;;3.10;1.40;;;15.60;67.70;;;;;;5010199;28;20275;-70
2022/10/31 01:56:57;;;;;;;1.90;1.75;;;15.60;68.10;;;;;;5011229;28;20735;-69
2022/10/31 01:59:27;;;;;;;2.35;1.95;;;15.70;68.90;;;;;;5011082;28;20185;-69
2022/10/31 02:01:53;;;;;;;1.83;1.70;;;15.70;68.60;;;;;;5009051;28;20211;-70
2022/10/31 02:04:20;;;;;;;2.50;2.00;;;15.70;68.80;;;;;;5010827;28;20272;-69
2022/10/31 02:07:14;;;;;;;2.17;2.05;;;15.70;68.90;;;;;;5009785;28;20268;-69
2022/10/31 02:09:40;;;;;;;3.33;1.80;;;15.80;69.10;;;;;;5009564;28;20285;-67
2022/10/31 02:12:09;;;;;;;2.33;2.05;;;15.70;69.50;;;;;;5011462;28;20183;-72
2022/10/31 02:14:37;;;;;;;1.88;1.85;;;15.70;69.30;;;;;;5007609;28;20183;-71
2022/10/31 02:17:02;;;;;;;2.40;2.08;;;15.70;69.50;;;;;;5011522;28;20255;-68
2022/10/31 02:20:21;;;;;;;3.38;2.05;;;15.80;69.50;;;;;;5009792;28;20201;-68
2022/10/31 02:23:09;;;;;;;2.33;2.22;;;15.80;69.40;;;;;;4986702;28;20303;-70
2022/10/31 02:26:07;;;;;;;3.72;1.98;;;15.70;70.10;;;;;;4991274;28;20204;-70
2022/10/31 02:28:47;;;;;;;2.03;1.67;;;15.70;69.60;;;;;;4985914;28;20185;-69
2022/10/31 02:31:35;;;;;;;3.33;2.55;;;15.70;69.40;;;;;;4987865;28;20273;-70
2022/10/31 02:34:10;;;;;;;3.70;2.45;;;15.80;69.50;;;;;;4988665;28;20227;-70
2022/10/31 02:37:18;;;;;;;3.53;2.17;;;15.80;69.50;;;;;;4985038;28;20283;-70
2022/10/31 02:40:05;;;;;;;2.38;2.25;;;15.80;69.20;;;;;;4912943;29;21083;-70
2022/10/31 02:42:57;;;;;;;3.15;2.78;;;15.80;70.10;;;;;;4914627;29;20219;-70
2022/10/31 02:45:29;;;;;;;3.90;2.00;;;15.80;68.80;;;;;;4923044;29;20218;-70
2022/10/31 02:48:00;;;;;;;2.58;2.47;;;15.80;69.50;;;;;;4919583;29;20827;-70
2022/10/31 02:50:39;;;;;;;6.30;3.25;;;15.80;68.60;;;;;;4920698;29;20247;-70
2022/10/31 02:53:05;;;;;;;3.35;3.15;;;15.80;67.80;;;;;;4915743;29;20183;-70
2022/10/31 02:55:34;;;;;;;3.25;3.00;;;15.80;69.50;;;;;;4914767;29;20247;-70
2022/10/31 02:58:08;;;;;;;7.78;3.70;;;15.70;68.80;;;;;;4941919;29;20206;-69
2022/10/31 03:00:49;;;;;;;3.70;3.50;;;15.60;67.70;;;;;;4944014;29;20193;-67
2022/10/31 03:03:40;;;;;;;3.15;2.95;;;15.50;67.50;;;;;;4945511;28;20746;-70
2022/10/31 03:06:17;;;;;;;4.55;3.53;;;15.50;67.40;;;;;;4942758;28;20195;-70
2022/10/31 03:08:49;;;;;;;4.22;3.17;;;15.40;67.90;;;;;;4943410;28;20199;-70
2022/10/31 03:11:18;;;;;;;3.83;3.53;;;15.30;68.20;;;;;;4945312;29;20302;-70
2022/10/31 03:13:49;;;;;;;4.55;3.05;;;15.20;67.90;;;;;;4944510;28;20206;-70
2022/10/31 03:16:39;;;;;;;3.85;3.33;;;15.20;68.00;;;;;;5004387;28;20220;-70
2022/10/31 03:19:10;;;;;;;5.70;3.40;;;15.10;68.00;;;;;;5011840;28;20697;-70
2022/10/31 03:22:02;;;;;;;6.60;3.22;;;15.10;68.10;;;;;;5013396;28;20207;-70
2022/10/31 03:24:32;;;;;;;3.70;3.47;;;15.00;67.90;;;;;;5016715;28;20716;-70
2022/10/31 03:26:59;;;;;;;4.05;3.75;;;15.00;68.40;;;;;;5011453;28;20189;-70
2022/10/31 03:29:30;;;;;;;4.10;3.72;;;15.00;68.10;;;;;;5019443;28;20177;-70
2022/10/31 03:32:03;;;;;;;3.60;2.92;;;15.00;67.70;;;;;;5010820;28;20215;-70
2022/10/31 03:34:31;;;;;;;4.82;3.80;;;15.00;67.50;;;;;;5011990;28;20195;-70
2022/10/31 03:37:01;;;;;;;4.30;3.47;;;14.90;67.90;;;;;;5006415;28;20221;-70
2022/10/31 03:39:29;;;;;;;4.72;3.70;;;14.90;67.60;;;;;;5009057;28;20208;-68
2022/10/31 03:42:15;;;;;;;6.40;3.80;;;14.90;67.70;;;;;;5013388;28;20246;-70
2022/10/31 03:44:46;;;;;;;6.78;3.63;;;14.80;67.40;;;;;;5015146;28;21170;-69
2022/10/31 03:47:12;;;;;;;4.60;3.88;;;14.80;67.50;;;;;;5012556;28;20238;-69
2022/10/31 03:49:38;;;;;;;4.05;3.60;;;14.80;67.80;;;;;;5008447;28;20185;-69
2022/10/31 03:52:22;;;;;;;3.60;3.42;;;14.80;67.80;;;;;;5013427;28;20669;-69
2022/10/31 03:54:59;;;;;;;4.07;3.78;;;14.70;67.90;;;;;;5008887;28;20443;-69
2022/10/31 03:57:48;;;;;;;4.25;3.90;;;14.70;67.80;;;;;;5014701;28;20273;-70
2022/10/31 04:00:15;;;;;;;5.20;4.13;;;14.70;67.80;;;;;;4974454;28;20202;-70
2022/10/31 04:02:58;;;;;;;6.32;4.05;;;14.70;68.60;;;;;;4973814;28;20668;-70
2022/10/31 04:05:24;;;;;;;4.93;3.97;;;14.60;68.50;;;;;;4971031;28;20293;-69
2022/10/31 04:07:54;;;;;;;4.63;4.13;;;14.60;68.20;;;;;;4974830;28;20674;-69
2022/10/31 04:10:23;;;;;;;6.97;3.95;;;14.50;68.20;;;;;;4974309;28;20310;-69
2022/10/31 04:12:55;;;;;;;6.28;4.03;;;14.50;68.60;;;;;;4973590;28;20197;-69
2022/10/31 04:15:23;;;;;;;4.10;3.78;;;14.50;70.70;;;;;;4977364;28;20194;-70
2022/10/31 04:17:52;;;;;;;8.38;3.75;;;14.40;69.10;;;;;;4979551;28;20216;-69
2022/10/31 04:20:18;;;;;;;5.38;4.57;;;14.30;69.70;;;;;;4981978;28;20225;-69
2022/10/31 04:22:44;;;;;;;4.45;4.10;;;14.30;69.00;;;;;;4982171;28;20224;-69
2022/10/31 04:25:09;;;;;;;4.22;3.83;;;14.30;68.90;;;;;;4980970;28;20574;-69
2022/10/31 04:27:35;;;;;;;4.45;4.05;;;14.30;69.90;;;;;;4976996;28;20248;-69
2022/10/31 04:30:01;;;;;;;4.75;4.28;;;14.20;69.20;;;;;;4978581;28;20197;-69
2022/10/31 04:32:26;;;;;;;6.15;4.03;;;14.20;69.00;;;;;;4976046;28;20189;-70
2022/10/31 04:34:52;;;;;;;4.22;3.92;;;14.20;68.90;;;;;;4975574;28;20197;-69
2022/10/31 04:37:17;;;;;;;4.32;3.80;;;14.20;69.00;;;;;;4992733;28;20286;-69
2022/10/31 04:39:43;;;;;;;4.18;3.75;;;14.20;70.20;;;;;;5010338;28;21146;-69
2022/10/31 04:42:09;;;;;;;3.47;3.20;;;14.30;70.10;;;;;;5012107;28;20191;-68
2022/10/31 04:44:34;;;;;;;4.68;3.88;;;14.20;70.60;;;;;;5011026;28;20185;-68
2022/10/31 04:47:00;;;;;;;4.85;4.22;;;14.30;70.40;;;;;;5013296;28;20352;-69
2022/10/31 04:49:26;;;;;;;4.97;3.50;;;14.30;70.80;;;;;;5010645;28;20205;-69
2022/10/31 04:51:51;;;;;;;4.72;3.28;;;14.30;70.30;;;;;;5015217;28;20192;-70
2022/10/31 04:54:17;;;;;;;3.88;3.70;;;14.20;70.50;;;;;;5012949;28;20184;-69
2022/10/31 04:56:42;;;;;;;4.32;3.92;;;14.20;70.70;;;;;;5014979;28;20216;-69
2022/10/31 04:59:08;;;;;;;5.72;3.75;;;14.30;70.60;;;;;;5017464;28;20731;-69
2022/10/31 05:01:34;;;;;;;4.60;4.20;;;14.20;69.90;;;;;;5009880;28;20184;-69
2022/10/31 05:03:59;;;;;;;3.78;3.47;;;14.20;70.10;;;;;;5014524;28;20180;-70
2022/10/31 05:06:25;;;;;;;3.55;3.35;;;14.20;70.30;;;;;;5012347;28;20241;-70
2022/10/31 05:08:50;;;;;;;5.22;3.63;;;14.30;70.20;;;;;;5010427;28;20191;-70
2022/10/31 05:11:16;;;;;;;6.60;3.85;;;14.30;70.10;;;;;;5008494;28;20187;-69
2022/10/31 05:13:42;;;;;;;4.68;4.20;;;14.30;70.30;;;;;;5013402;28;20185;-69
2022/10/31 05:16:07;;;;;;;6.78;3.90;;;14.30;70.60;;;;;;5007898;28;20212;-69
2022/10/31 05:18:33;;;;;;;4.55;4.22;;;14.30;71.40;;;;;;5011759;28;20280;-69
2022/10/31 05:20:59;;;;;;;7.90;4.63;;;14.30;72.80;;;;;;5011542;28;20200;-69
2022/10/31 05:23:24;;;;;;;4.13;3.83;;;14.30;72.00;;;;;;5012218;28;20181;-70
2022/10/31 05:25:50;;;;;;;4.90;4.50;;;14.30;73.30;;;;;;5009262;28;20185;-68
2022/10/31 05:28:16;;;;;;;6.63;4.85;;;14.30;72.70;;;;;;5008120;28;20192;-70
2022/10/31 05:30:41;;;;;;;5.63;4.25;;;14.30;71.20;;;;;;5010392;28;20176;-70
2022/10/31 05:33:07;;;;;;;8.73;4.65;;;14.20;72.20;;;;;;5014901;28;20210;-70
2022/10/31 05:35:33;;;;;;;4.22;3.95;;;14.20;72.10;;;;;;5013681;28;20212;-70
2022/10/31 05:37:59;;;;;;;6.18;4.57;;;14.20;71.90;;;;;;5013302;28;20204;-70
2022/10/31 05:40:26;;;;;;;4.72;4.32;;;14.20;72.50;;;;;;5009486;28;20650;-70
2022/10/31 05:42:53;;;;;;;4.30;3.90;;;14.10;71.70;;;;;;5015773;28;20607;-71
2022/10/31 05:45:20;;;;;;;3.53;3.25;;;14.10;71.50;;;;;;5010520;28;20201;-68
2022/10/31 05:48:01;;;;;;;4.70;4.18;;;14.10;71.50;;;;;;5011962;28;20280;-69
2022/10/31 05:50:28;;;;;;;5.10;4.60;;;14.10;71.00;;;;;;5015156;28;20637;-69
2022/10/31 05:52:57;;;;;;;5.18;4.43;;;14.00;71.90;;;;;;5015520;28;20271;-70
2022/10/31 05:55:22;;;;;;;9.18;4.88;;;14.00;72.00;;;;;;5010692;28;20259;-70
2022/10/31 05:57:48;;;;;;;4.55;4.22;;;14.00;71.90;;;;;;5011575;28;20272;-71
2022/10/31 06:00:14;;;;;;;6.28;4.85;;;14.00;72.70;;;;;;5007458;28;20193;-70
2022/10/31 06:02:39;;;;;;;7.65;5.22;;;14.10;72.50;;;;;;5012958;28;20191;-69
2022/10/31 06:05:05;;;;;;;4.85;4.40;;;14.10;72.80;;;;;;5006830;28;20218;-69
2022/10/31 06:07:35;;;;;;;5.70;5.25;;;14.10;73.00;;;;;;5009332;28;20185;-69
2022/10/31 06:10:02;;;;;;;8.40;5.57;;;14.10;73.10;;;;;;5005183;28;20178;-70
2022/10/31 06:12:27;;;;;;;6.68;5.13;;;14.10;72.90;;;;;;5007826;28;20193;-69
2022/10/31 06:14:53;;;;;;;5.68;4.63;;;14.10;74.10;;;;;;5005608;28;20203;-71
2022/10/31 06:17:19;;;;;;;5.18;4.78;;;14.10;73.80;;;;;;5005675;28;20217;-70
2022/10/31 06:19:44;;;;;;;5.13;4.63;;;14.20;74.40;;;;;;5010068;28;20193;-70
2022/10/31 06:22:11;;;;;;;5.35;4.82;;;14.20;73.50;;;;;;5008312;28;20192;-69
2022/10/31 06:24:37;;;;;;;6.93;5.03;;;14.20;74.00;;;;;;5011466;28;20177;-69
2022/10/31 06:27:04;;;;;;;8.15;5.18;;;14.30;74.40;;;;;;5009503;28;20192;-69
2022/10/31 06:29:29;;;;;;;11.80;5.43;;;14.30;73.30;;;;;;5009560;28;20184;-72
2022/10/31 06:31:55;;;;;;;7.68;5.82;;;14.30;73.90;;;;;;5010716;28;20184;-69
2022/10/31 06:34:21;;;;;;;8.23;6.20;;;14.30;74.10;;;;;;5012215;28;20184;-68
2022/10/31 06:36:47;;;;;;;8.90;6.13;;;14.30;74.40;;;;;;5010599;28;20455;-69
2022/10/31 06:39:13;;;;;;;8.18;6.40;;;14.30;75.90;;;;;;5008992;28;20191;-70
2022/10/31 06:41:39;;;;;;;9.45;7.00;;;14.40;76.30;;;;;;5016569;28;20263;-69
2022/10/31 06:44:06;;;;;;;14.18;6.95;;;14.50;76.40;;;;;;5008109;28;20376;-69
2022/10/31 06:46:32;;;;;;;12.38;6.55;;;14.80;76.60;;;;;;5008585;28;20205;-69
2022/10/31 06:48:57;;;;;;;9.15;5.63;;;15.00;75.50;;;;;;5011713;28;20195;-70
2022/10/31 06:51:23;;;;;;;10.63;6.68;;;15.40;75.60;;;;;;5015338;28;20216;-74
2022/10/31 06:53:48;;;;;;;7.35;6.13;;;15.80;74.30;;;;;;5014081;28;20199;-69
2022/10/31 06:56:14;;;;;;;10.02;6.70;;;16.20;73.60;;;;;;5007334;28;20220;-70
2022/10/31 06:58:40;;;;;;;9.45;6.35;;;16.70;73.10;;;;;;5006841;28;20184;-72
2022/10/31 07:01:06;;;;;;;11.18;6.47;;;17.30;72.60;;;;;;5004535;28;20194;-72
2022/10/31 07:03:31;;;;;;;6.88;5.95;;;17.90;70.70;;;;;;5003338;28;20903;-71
2022/10/31 07:05:57;;;;;;;10.07;6.80;;;18.40;69.30;;;;;;5009120;28;20188;-71
2022/10/31 07:08:25;;;;;;;12.25;5.80;;;19.00;68.70;;;;;;5008429;28;20196;-72
2022/10/31 07:10:53;;;;;;;9.43;6.30;;;19.60;67.60;;;;;;5007712;28;20189;-72
2022/10/31 07:13:24;;;;;;;7.90;6.50;;;20.20;66.30;;;;;;5011170;28;20180;-73
2022/10/31 07:15:50;;;;;;;9.15;6.55;;;20.70;65.10;;;;;;5013210;28;20208;-76
2022/10/31 07:18:16;;;;;;;8.20;6.47;;;21.20;64.10;;;;;;5004875;28;20200;-71
2022/10/31 07:20:41;;;;;;;10.23;7.13;;;21.70;63.30;;;;;;5006665;28;20624;-72
2022/10/31 07:23:11;;;;;;;8.90;7.07;;;22.40;63.10;;;;;;5001171;28;20189;-73
2022/10/31 07:25:38;;;;;;;11.25;8.05;;;22.90;62.20;;;;;;5005608;28;20181;-72
2022/10/31 07:28:04;;;;;;;8.35;7.18;;;23.40;60.30;;;;;;5009248;28;20263;-71
2022/10/31 07:30:30;;;;;;;8.02;7.10;;;23.90;60.00;;;;;;5009965;28;20193;-73
2022/10/31 07:32:55;;;;;;;10.90;6.72;;;24.40;60.00;;;;;;5012114;28;20662;-72
2022/10/31 07:35:24;;;;;;;8.65;7.57;;;24.90;58.90;;;;;;5006909;28;20632;-73
2022/10/31 07:37:50;;;;;;;12.85;7.90;;;25.40;58.10;;;;;;5011659;28;20184;-72
2022/10/31 07:40:16;;;;;;;13.48;7.47;;;25.90;56.90;;;;;;5007217;28;20183;-72
2022/10/31 07:42:49;;;;;;;9.35;7.22;;;26.40;57.20;;;;;;5004971;28;20223;-71
2022/10/31 07:45:19;;;;;;;8.27;7.45;;;26.80;55.80;;;;;;5005859;28;20197;-71
2022/10/31 07:47:50;;;;;;;10.48;8.27;;;27.30;55.40;;;;;;5009474;28;20189;-72
2022/10/31 07:50:22;;;;;;;10.70;7.88;;;27.70;54.80;;;;;;5007492;28;20185;-71
2022/10/31 07:52:47;;;;;;;8.38;7.55;;;28.10;54.30;;;;;;5009365;28;20586;-71
2022/10/31 07:55:14;;;;;;;8.60;7.22;;;28.50;53.90;;;;;;5005905;28;20192;-71
2022/10/31 07:57:40;;;;;;;8.60;7.72;;;28.90;53.30;;;;;;5009910;28;20180;-72
2022/10/31 08:00:08;;;;;;;8.77;7.90;;;29.20;52.90;;;;;;5013520;28;20831;-72
2022/10/31 08:02:34;;;;;;;8.23;7.53;;;29.60;52.80;;;;;;5006875;28;20243;-72
2022/10/31 08:05:01;;;;;;;8.52;7.25;;;29.90;52.20;;;;;;5007375;28;20185;-72
2022/10/31 08:07:28;;;;;;;10.82;7.40;;;30.20;51.10;;;;;;5006567;28;20188;-71
2022/10/31 08:09:54;;;;;;;7.63;6.97;;;30.40;51.40;;;;;;5014378;28;20246;-72
2022/10/31 08:12:20;;;;;;;9.75;8.00;;;30.60;51.00;;;;;;5007222;28;20632;-72
2022/10/31 08:14:46;;;;;;;12.23;8.55;;;30.80;50.50;;;;;;5009164;28;20272;-71
2022/10/31 08:17:11;;;;;;;10.27;7.45;;;31.10;50.60;;;;;;5009709;28;21906;-73
2022/10/31 08:19:37;;;;;;;11.77;8.05;;;31.40;49.90;;;;;;5007227;28;20199;-73
2022/10/31 08:22:03;;;;;;;8.35;7.63;;;31.80;49.70;;;;;;5007916;28;20250;-72
2022/10/31 08:24:28;;;;;;;8.48;7.68;;;32.10;49.10;;;;;;5012033;28;20557;-71
2022/10/31 08:26:54;;;;;;;12.23;8.25;;;32.50;49.10;;;;;;5011513;28;20181;-72
2022/10/31 08:29:19;;;;;;;10.95;8.65;;;32.80;48.10;;;;;;5015455;28;20179;-72
2022/10/31 08:31:45;;;;;;;9.85;8.50;;;33.10;47.30;;;;;;5011001;28;20177;-73
2022/10/31 08:34:14;;;;;;;8.85;7.90;;;33.30;48.00;;;;;;5001303;28;20188;-73
2022/10/31 08:36:40;;;;;;;8.85;8.00;;;33.50;47.70;;;;;;5007243;28;20217;-71
2022/10/31 08:39:05;;;;;;;9.07;8.00;;;33.80;47.50;;;;;;5006503;28;20564;-72
2022/10/31 08:41:31;;;;;;;8.70;7.57;;;34.00;47.50;;;;;;5004282;28;20182;-72
2022/10/31 08:43:57;;;;;;;7.88;7.03;;;34.30;47.20;;;;;;5005822;28;20199;-72
2022/10/31 08:46:22;;;;;;;9.95;7.82;;;34.60;44.70;;;;;;5008578;28;20287;-72
2022/10/31 08:48:48;;;;;;;9.95;7.85;;;34.70;46.70;;;;;;5012018;28;20199;-71
2022/10/31 08:51:14;;;;;;;8.02;7.30;;;34.90;46.90;;;;;;5007914;28;20246;-70
2022/10/31 08:53:40;;;;;;;10.25;7.13;;;35.10;45.90;;;;;;5009378;28;20175;-71
2022/10/31 08:56:06;;;;;;;8.63;7.70;;;35.30;45.50;;;;;;5003990;28;20319;-72
2022/10/31 08:58:31;;;;;;;8.02;7.07;;;35.40;43.70;;;;;;5010678;28;20187;-72
2022/10/31 09:00:59;;;;;;;8.23;7.18;;;35.30;44.30;;;;;;5006053;28;20188;-72
2022/10/31 09:03:28;;;;;;;8.18;7.45;;;35.10;45.20;;;;;;5005495;28;20197;-71
2022/10/31 09:05:58;;;;;;;8.32;7.18;;;35.00;46.60;;;;;;5011674;28;20180;-71
2022/10/31 09:08:24;;;;;;;7.50;6.80;;;35.00;45.20;;;;;;5002459;28;20189;-72
2022/10/31 09:10:50;;;;;;;7.28;6.57;;;34.90;45.60;;;;;;5007790;28;20730;-73
2022/10/31 09:13:20;;;;;;;8.30;6.68;;;34.90;45.60;;;;;;5004279;28;20276;-71
2022/10/31 09:15:48;;;;;;;6.93;6.40;;;35.10;45.90;;;;;;5035506;28;20205;-73
2022/10/31 09:18:17;;;;;;;7.97;7.10;;;35.30;46.00;;;;;;5008042;28;20187;-71
2022/10/31 09:20:44;;;;;;;8.55;6.70;;;35.40;45.60;;;;;;5010075;28;20621;-73
2022/10/31 09:23:11;;;;;;;6.88;6.10;;;35.40;45.00;;;;;;5009549;28;20194;-73
2022/10/31 09:25:37;;;;;;;7.55;5.75;;;35.50;45.00;;;;;;5004030;28;20264;-72
2022/10/31 09:28:06;;;;;;;6.22;5.82;;;35.60;45.50;;;;;;5005841;28;20211;-71
2022/10/31 09:30:34;;;;;;;8.13;5.18;;;35.70;45.10;;;;;;5004551;28;20188;-71
2022/10/31 09:33:02;;;;;;;6.07;5.57;;;35.80;43.20;;;;;;5010808;28;20195;-71
2022/10/31 09:35:28;;;;;;;5.68;5.20;;;35.50;43.00;;;;;;5009581;28;20176;-72
2022/10/31 09:38:14;;;;;;;9.95;5.32;;;34.90;43.80;;;;;;5005615;28;20602;-72
2022/10/31 09:41:03;;;;;;;5.15;4.85;;;34.70;45.40;;;;;;5009347;28;20556;-72
2022/10/31 09:43:55;;;;;;;4.22;3.92;;;34.50;45.10;;;;;;4984649;28;20642;-73
2022/10/31 09:46:35;;;;;;;6.40;4.35;;;34.70;45.60;;;;;;4979407;28;20295;-72
2022/10/31 09:49:19;;;;;;;5.13;4.65;;;34.90;45.70;;;;;;4985657;28;20196;-74
2022/10/31 09:51:54;;;;;;;6.15;4.78;;;35.30;45.10;;;;;;4969573;28;20247;-73
2022/10/31 09:54:25;;;;;;;5.07;4.68;;;35.60;43.30;;;;;;4984933;28;20291;-74
2022/10/31 09:56:51;;;;;;;5.15;4.60;;;35.70;42.90;;;;;;4983076;28;20231;-74
2022/10/31 09:59:30;;;;;;;4.88;4.22;;;35.80;44.40;;;;;;4969068;28;20192;-73
2022/10/31 10:02:16;;;;;;;5.18;4.35;;;35.80;44.20;;;;;;5003253;28;20210;-74
2022/10/31 10:04:53;;;;;;;5.15;4.70;;;36.00;44.30;;;;;;4982074;28;20757;-73
2022/10/31 10:07:32;;;;;;;3.95;3.78;;;36.10;44.20;;;;;;4987320;28;20189;-73
2022/10/31 10:10:01;;;;;;;8.13;3.35;;;36.30;42.10;;;;;;4990441;28;20197;-74
2022/10/31 10:13:12;;;;;;;3.42;3.22;;;36.10;43.60;;;;;;4990077;28;20369;-73
2022/10/31 10:16:00;;;;;;;4.20;3.83;;;36.00;42.10;;;;;;4907447;29;21157;-72
2022/10/31 10:18:51;;;;;;;3.15;2.92;;;36.20;44.60;;;;;;4907171;29;20183;-73
2022/10/31 10:21:37;;;;;;;5.05;3.08;;;36.40;42.90;;;;;;4890022;29;20631;-73
2022/10/31 10:24:17;;;;;;;2.95;2.75;;;36.60;43.90;;;;;;4891524;29;20198;-72
2022/10/31 10:27:13;;;;;;;4.15;2.72;;;36.80;43.70;;;;;;4889723;29;20195;-73
2022/10/31 10:29:44;;;;;;;3.95;1.90;;;37.00;40.80;;;;;;4910228;29;20301;-74
2022/10/31 10:32:18;;;;;;;3.33;2.25;;;37.00;41.10;;;;;;4906587;29;20223;-72
2022/10/31 10:34:51;;;;;;;2.40;2.30;;;37.00;42.00;;;;;;4905074;29;20740;-74
2022/10/31 10:37:36;;;;;;;2.42;2.17;;;37.20;42.80;;;;;;4907999;29;20227;-71
2022/10/31 10:40:21;;;;;;;2.03;2.00;;;37.20;40.60;;;;;;4891778;29;20192;-72
2022/10/31 10:48:47;;;;;;;2.50;2.03;;;37.30;41.80;;;;;;4907019;29;20190;-70
2022/10/31 10:51:28;;;;;;;2.40;2.30;;;36.60;41.20;;;;;;4889520;29;20768;-70
2022/10/31 10:54:02;;;;;;;2.15;2.00;;;36.20;42.50;;;;;;4986966;28;20208;-70
2022/10/31 10:56:40;;;;;;;1.77;1.77;;;36.10;43.30;;;;;;4994223;28;20219;-71
2022/10/31 10:59:13;;;;;;;2.45;2.00;;;35.90;43.00;;;;;;4993129;28;20580;-70
2022/10/31 11:01:41;;;;;;;2.53;1.70;;;36.00;43.50;;;;;;4989161;28;20205;-70
2022/10/31 11:04:22;;;;;;;1.88;1.55;;;36.30;42.80;;;;;;5001663;28;20273;-71
2022/10/31 11:07:04;;;;;;;3.45;1.60;;;36.50;42.70;;;;;;4999440;28;20661;-74
2022/10/31 11:09:32;;;;;;;2.80;2.03;;;36.80;42.20;;;;;;5003796;28;20283;-73
2022/10/31 11:11:59;;;;;;;2.97;2.15;;;37.10;40.80;;;;;;5010629;28;20180;-72
2022/10/31 11:14:26;;;;;;;2.00;1.90;;;37.20;42.10;;;;;;5014457;28;20184;-72
2022/10/31 11:17:10;;;;;;;2.33;2.00;;;37.40;42.60;;;;;;5012602;28;20696;-73
2022/10/31 11:19:36;;;;;;;4.03;2.08;;;37.60;40.90;;;;;;5015584;28;20180;-73
2022/10/31 11:22:07;;;;;;;2.95;1.75;;;37.80;41.20;;;;;;5011022;28;20579;-73
2022/10/31 11:24:38;;;;;;;1.70;1.58;;;38.00;42.20;;;;;;5010921;28;20543;-73
2022/10/31 11:27:21;;;;;;;2.05;1.90;;;38.20;41.80;;;;;;5003583;28;20181;-74
2022/10/31 11:29:47;;;;;;;2.22;2.08;;;37.90;39.30;;;;;;5010667;28;20192;-72
2022/10/31 11:32:23;;;;;;;2.67;1.90;;;37.70;39.50;;;;;;5011814;28;20721;-74
2022/10/31 11:35:00;;;;;;;1.92;1.52;;;37.70;40.80;;;;;;5009501;28;20274;-74
2022/10/31 11:37:32;;;;;;;3.50;1.88;;;37.70;40.70;;;;;;5004372;28;20767;-73
2022/10/31 11:40:05;;;;;;;1.60;1.50;;;37.70;39.60;;;;;;5008123;28;20191;-74
2022/10/31 11:42:52;;;;;;;5.95;2.17;;;37.70;40.30;;;;;;5027348;28;20288;-74
2022/10/31 11:45:24;;;;;;;2.17;1.63;;;37.60;40.00;;;;;;4961169;28;1258440;-73
2022/10/31 11:47:52;;;;;;;3.88;2.00;;;37.40;40.10;;;;;;5005817;28;20197;-73
2022/10/31 11:50:24;;;;;;;1.75;1.55;;;37.10;40.70;;;;;;5010305;28;20319;-75
2022/10/31 11:52:52;;;;;;;6.28;2.00;;;36.50;40.30;;;;;;5007891;28;20185;-72
2022/10/31 11:55:37;;;;;;;1.50;1.40;;;36.30;41.30;;;;;;5042791;28;20275;-73
2022/10/31 11:58:03;;;;;;;3.78;1.67;;;35.90;40.60;;;;;;5008672;28;20196;-72
2022/10/31 12:00:40;;;;;;;2.45;1.88;;;35.80;41.50;;;;;;5016059;28;20358;-73
2022/10/31 12:03:22;;;;;;;3.17;1.65;;;35.40;41.70;;;;;;5011192;28;20195;-73
2022/10/31 12:05:58;;;;;;;1.35;1.35;;;35.00;41.70;;;;;;5015790;28;20176;-72
2022/10/31 12:08:29;;;;;;;3.05;1.67;;;34.70;42.20;;;;;;5007808;28;20195;-73
2022/10/31 12:11:13;;;;;;;2.25;1.67;;;34.50;43.30;;;;;;5011774;28;20184;-72
2022/10/31 12:14:07;;;;;;;2.85;1.35;;;34.20;42.80;;;;;;5012954;28;20187;-73
2022/10/31 12:17:05;;;;;;;2.00;1.90;;;34.10;43.40;;;;;;5004242;28;20347;-73
2022/10/31 12:20:03;;;;;;;3.35;1.95;;;34.20;42.20;;;;;;5009436;28;20192;-73
2022/10/31 12:22:53;;;;;;;2.92;2.00;;;34.10;42.30;;;;;;5008551;28;20752;-73
2022/10/31 12:25:28;;;;;;;1.40;1.30;;;33.80;42.60;;;;;;5010543;28;20733;-73
2022/10/31 12:28:09;;;;;;;1.77;1.45;;;33.70;43.80;;;;;;5007366;28;20198;-72
2022/10/31 12:30:46;;;;;;;1.58;1.48;;;33.90;43.50;;;;;;5006326;28;20684;-72
2022/10/31 12:33:40;;;;;;;1.65;1.55;;;33.80;42.40;;;;;;5013618;28;20288;-73
2022/10/31 12:36:30;;;;;;;2.28;2.05;;;33.80;42.80;;;;;;5009829;28;20204;-71
2022/10/31 12:39:20;;;;;;;2.80;1.80;;;34.00;42.60;;;;;;5007329;28;20200;-72
2022/10/31 12:42:21;;;;;;;1.90;1.25;;;33.80;42.50;;;;;;5011316;28;20652;-72
2022/10/31 12:44:50;;;;;;;1.70;1.60;;;33.60;42.60;;;;;;4998649;28;20208;-73
2022/10/31 12:47:42;;;;;;;2.15;1.83;;;33.50;43.80;;;;;;5001110;28;20188;-73
2022/10/31 12:50:34;;;;;;;5.20;2.15;;;33.70;43.20;;;;;;5000255;28;20193;-73
2022/10/31 12:53:13;;;;;;;1.95;1.70;;;33.40;43.80;;;;;;5000570;28;20227;-73
2022/10/31 12:55:46;;;;;;;1.77;1.67;;;33.30;43.90;;;;;;4999373;28;20653;-73
2022/10/31 12:58:26;;;;;;;3.25;1.80;;;33.30;43.70;;;;;;5000383;28;20185;-71
2022/10/31 13:01:06;;;;;;;1.50;1.50;;;33.30;43.70;;;;;;5000244;28;20199;-73
2022/10/31 13:03:44;;;;;;;1.58;1.52;;;33.40;43.80;;;;;;5000238;28;20184;-73
2022/10/31 13:06:17;;;;;;;4.95;2.03;;;33.50;42.90;;;;;;4999939;28;20259;-73
2022/10/31 13:08:56;;;;;;;2.05;1.95;;;33.40;44.30;;;;;;4999732;28;20259;-73
2022/10/31 13:11:27;;;;;;;4.57;2.13;;;33.20;43.40;;;;;;4984937;28;20595;-73
2022/10/31 13:13:58;;;;;;;3.05;2.10;;;33.20;44.50;;;;;;4998618;28;20192;-71